sensor_id;sensor_type;location;lat;lon;timestamp;pressure;altitude;pressure_sealevel;temperature;humidity
48364;BME280;34170;54.364;18.582;2022-09-17T00:01:28;98457.47;;;9.77;100.00
48364;BME280;34170;54.364;18.582;2022-09-17T00:03:56;98441.38;;;9.77;100.00
48364;BME280;34170;54.364;18.582;2022-09-17T00:06:26;98456.72;;;9.98;100.00
48364;BME280;34170;54.364;18.582;2022-09-17T00:08:54;98452.28;;;9.90;100.00
48364;BME280;34170;54.364;18.582;2022-09-17T00:11:27;98437.56;;;9.71;100.00
48364;BME280;34170;54.364;18.582;2022-09-17T00:13:57;98448.03;;;9.81;100.00
48364;BME280;34170;54.364;18.582;2022-09-17T00:16:35;98457.53;;;9.83;100.00
48364;BME280;34170;54.364;18.582;2022-09-17T00:19:04;98451.53;;;9.96;100.00
48364;BME280;34170;54.364;18.582;2022-09-17T00:21:32;98463.69;;;10.07;100.00
48364;BME280;34170;54.364;18.582;2022-09-17T00:24:02;98456.53;;;9.99;100.00
48364;BME280;34170;54.364;18.582;2022-09-17T00:26:30;98450.34;;;9.84;100.00
48364;BME280;34170;54.364;18.582;2022-09-17T00:28:58;98449.78;;;9.88;100.00
48364;BME280;34170;54.364;18.582;2022-09-17T00:31:26;98456.34;;;9.86;100.00
48364;BME280;34170;54.364;18.582;2022-09-17T00:33:54;98458.28;;;9.92;100.00
48364;BME280;34170;54.364;18.582;2022-09-17T00:36:22;98454.69;;;9.85;100.00
48364;BME280;34170;54.364;18.582;2022-09-17T00:38:50;98461.63;;;9.79;100.00
48364;BME280;34170;54.364;18.582;2022-09-17T00:41:19;98447.84;;;9.82;100.00
48364;BME280;34170;54.364;18.582;2022-09-17T00:43:49;98464.69;;;9.91;100.00
48364;BME280;34170;54.364;18.582;2022-09-17T00:46:20;98469.59;;;9.87;100.00
48364;BME280;34170;54.364;18.582;2022-09-17T00:48:52;98469.94;;;9.99;100.00
48364;BME280;34170;54.364;18.582;2022-09-17T00:51:26;98476.53;;;9.82;100.00
48364;BME280;34170;54.364;18.582;2022-09-17T00:53:55;98477.19;;;9.84;100.00
48364;BME280;34170;54.364;18.582;2022-09-17T00:56:25;98472.94;;;9.89;100.00
48364;BME280;34170;54.364;18.582;2022-09-17T00:58:54;98476.91;;;9.93;100.00
48364;BME280;34170;54.364;18.582;2022-09-17T01:01:22;98473.50;;;10.00;100.00
48364;BME280;34170;54.364;18.582;2022-09-17T01:03:49;98486.44;;;9.96;100.00
48364;BME280;34170;54.364;18.582;2022-09-17T01:12:03;98492.84;;;10.25;100.00
48364;BME280;34170;54.364;18.582;2022-09-17T01:29:14;98466.22;;;10.45;100.00
48364;BME280;34170;54.364;18.582;2022-09-17T01:34:49;98474.13;;;10.46;100.00
48364;BME280;34170;54.364;18.582;2022-09-17T01:40:26;98470.56;;;10.46;100.00
48364;BME280;34170;54.364;18.582;2022-09-17T01:45:38;98475.34;;;10.14;100.00
48364;BME280;34170;54.364;18.582;2022-09-17T01:48:13;98470.13;;;10.27;100.00
48364;BME280;34170;54.364;18.582;2022-09-17T01:50:52;98458.91;;;10.24;100.00
48364;BME280;34170;54.364;18.582;2022-09-17T01:53:25;98447.41;;;10.30;100.00
48364;BME280;34170;54.364;18.582;2022-09-17T01:55:57;98472.94;;;10.34;100.00
48364;BME280;34170;54.364;18.582;2022-09-17T01:58:28;98478.81;;;10.29;100.00
48364;BME280;34170;54.364;18.582;2022-09-17T02:01:01;98470.88;;;10.21;100.00
48364;BME280;34170;54.364;18.582;2022-09-17T02:03:34;98476.81;;;10.17;100.00
48364;BME280;34170;54.364;18.582;2022-09-17T02:06:16;98473.00;;;9.96;100.00
48364;BME280;34170;54.364;18.582;2022-09-17T02:08:49;98473.94;;;10.03;100.00
48364;BME280;34170;54.364;18.582;2022-09-17T02:11:18;98480.25;;;10.10;100.00
48364;BME280;34170;54.364;18.582;2022-09-17T02:13:51;98478.28;;;10.04;100.00
48364;BME280;34170;54.364;18.582;2022-09-17T02:16:25;98469.66;;;9.94;100.00
48364;BME280;34170;54.364;18.582;2022-09-17T02:19:00;98476.63;;;10.03;100.00
48364;BME280;34170;54.364;18.582;2022-09-17T02:21:36;98468.50;;;9.97;100.00
48364;BME280;34170;54.364;18.582;2022-09-17T02:24:11;98485.69;;;10.02;100.00
48364;BME280;34170;54.364;18.582;2022-09-17T02:26:47;98479.59;;;9.79;100.00
48364;BME280;34170;54.364;18.582;2022-09-17T02:29:24;98466.72;;;9.74;100.00
48364;BME280;34170;54.364;18.582;2022-09-17T02:31:53;98462.09;;;9.83;100.00
48364;BME280;34170;54.364;18.582;2022-09-17T02:34:20;98454.88;;;9.68;100.00
48364;BME280;34170;54.364;18.582;2022-09-17T02:36:48;98478.66;;;9.86;100.00
48364;BME280;34170;54.364;18.582;2022-09-17T02:39:15;98483.22;;;9.86;100.00
48364;BME280;34170;54.364;18.582;2022-09-17T02:41:56;98482.91;;;9.96;100.00
48364;BME280;34170;54.364;18.582;2022-09-17T02:55:30;98498.56;;;9.92;100.00
48364;BME280;34170;54.364;18.582;2022-09-17T03:00:35;98487.94;;;9.84;100.00
48364;BME280;34170;54.364;18.582;2022-09-17T03:03:10;98483.75;;;9.96;100.00
48364;BME280;34170;54.364;18.582;2022-09-17T03:05:40;98478.19;;;9.83;100.00
48364;BME280;34170;54.364;18.582;2022-09-17T03:08:12;98484.41;;;9.83;100.00
48364;BME280;34170;54.364;18.582;2022-09-17T03:10:40;98477.44;;;9.89;100.00
48364;BME280;34170;54.364;18.582;2022-09-17T03:13:07;98478.38;;;9.96;100.00
48364;BME280;34170;54.364;18.582;2022-09-17T03:15:34;98478.75;;;9.93;100.00
48364;BME280;34170;54.364;18.582;2022-09-17T03:18:02;98480.06;;;9.97;100.00
48364;BME280;34170;54.364;18.582;2022-09-17T03:20:29;98468.03;;;9.93;100.00
48364;BME280;34170;54.364;18.582;2022-09-17T03:22:56;98476.72;;;9.95;100.00
48364;BME280;34170;54.364;18.582;2022-09-17T03:25:24;98468.38;;;9.90;100.00
48364;BME280;34170;54.364;18.582;2022-09-17T03:27:51;98477.72;;;9.94;100.00
48364;BME280;34170;54.364;18.582;2022-09-17T03:30:18;98477.91;;;9.92;100.00
48364;BME280;34170;54.364;18.582;2022-09-17T03:32:46;98487.00;;;9.91;100.00
48364;BME280;34170;54.364;18.582;2022-09-17T03:35:13;98481.63;;;9.77;100.00
48364;BME280;34170;54.364;18.582;2022-09-17T03:37:40;98483.38;;;9.69;100.00
48364;BME280;34170;54.364;18.582;2022-09-17T03:40:09;98468.19;;;9.62;100.00
48364;BME280;34170;54.364;18.582;2022-09-17T03:42:36;98477.69;;;9.49;100.00
48364;BME280;34170;54.364;18.582;2022-09-17T03:45:04;98489.56;;;9.55;100.00
48364;BME280;34170;54.364;18.582;2022-09-17T03:47:31;98492.19;;;9.40;100.00
48364;BME280;34170;54.364;18.582;2022-09-17T03:49:58;98493.78;;;9.34;100.00
48364;BME280;34170;54.364;18.582;2022-09-17T03:52:26;98478.47;;;9.20;100.00
48364;BME280;34170;54.364;18.582;2022-09-17T03:54:53;98489.50;;;9.02;100.00
48364;BME280;34170;54.364;18.582;2022-09-17T03:57:20;98493.31;;;9.08;100.00
48364;BME280;34170;54.364;18.582;2022-09-17T03:59:48;98498.25;;;9.19;100.00
48364;BME280;34170;54.364;18.582;2022-09-17T04:02:16;98494.41;;;8.99;100.00
48364;BME280;34170;54.364;18.582;2022-09-17T04:04:43;98495.22;;;9.22;100.00
48364;BME280;34170;54.364;18.582;2022-09-17T04:07:10;98502.19;;;8.85;100.00
48364;BME280;34170;54.364;18.582;2022-09-17T04:09:38;98485.63;;;8.82;100.00
48364;BME280;34170;54.364;18.582;2022-09-17T04:12:05;98497.53;;;8.79;100.00
48364;BME280;34170;54.364;18.582;2022-09-17T04:14:33;98492.91;;;8.73;100.00
48364;BME280;34170;54.364;18.582;2022-09-17T04:17:00;98494.50;;;8.82;100.00
48364;BME280;34170;54.364;18.582;2022-09-17T04:19:27;98509.56;;;8.83;100.00
48364;BME280;34170;54.364;18.582;2022-09-17T04:21:54;98499.31;;;8.87;100.00
48364;BME280;34170;54.364;18.582;2022-09-17T04:24:22;98493.63;;;8.90;100.00
48364;BME280;34170;54.364;18.582;2022-09-17T04:26:49;98502.09;;;9.02;100.00
48364;BME280;34170;54.364;18.582;2022-09-17T04:29:16;98498.03;;;8.83;100.00
48364;BME280;34170;54.364;18.582;2022-09-17T04:31:44;98501.19;;;8.86;100.00
48364;BME280;34170;54.364;18.582;2022-09-17T04:34:11;98498.19;;;8.81;100.00
48364;BME280;34170;54.364;18.582;2022-09-17T04:36:39;98489.06;;;9.13;100.00
48364;BME280;34170;54.364;18.582;2022-09-17T04:39:07;98494.91;;;9.17;100.00
48364;BME280;34170;54.364;18.582;2022-09-17T04:41:34;98496.97;;;9.30;100.00
48364;BME280;34170;54.364;18.582;2022-09-17T04:44:01;98507.34;;;9.33;100.00
48364;BME280;34170;54.364;18.582;2022-09-17T04:46:29;98502.91;;;9.25;100.00
48364;BME280;34170;54.364;18.582;2022-09-17T04:48:56;98501.97;;;9.18;100.00
48364;BME280;34170;54.364;18.582;2022-09-17T04:51:24;98509.25;;;9.47;100.00
48364;BME280;34170;54.364;18.582;2022-09-17T04:53:51;98519.00;;;9.63;100.00
48364;BME280;34170;54.364;18.582;2022-09-17T04:56:18;98516.31;;;9.78;100.00
48364;BME280;34170;54.364;18.582;2022-09-17T04:58:46;98510.00;;;9.56;100.00
48364;BME280;34170;54.364;18.582;2022-09-17T05:01:13;98507.81;;;9.74;100.00
48364;BME280;34170;54.364;18.582;2022-09-17T05:03:41;98506.16;;;9.73;100.00
48364;BME280;34170;54.364;18.582;2022-09-17T05:06:08;98510.97;;;9.93;100.00
48364;BME280;34170;54.364;18.582;2022-09-17T05:08:36;98525.69;;;9.97;100.00
48364;BME280;34170;54.364;18.582;2022-09-17T05:11:03;98508.66;;;10.05;100.00
48364;BME280;34170;54.364;18.582;2022-09-17T05:13:31;98505.59;;;10.23;100.00
48364;BME280;34170;54.364;18.582;2022-09-17T05:15:58;98513.59;;;10.31;100.00
48364;BME280;34170;54.364;18.582;2022-09-17T05:18:25;98520.44;;;10.85;100.00
48364;BME280;34170;54.364;18.582;2022-09-17T05:20:53;98520.44;;;11.28;100.00
48364;BME280;34170;54.364;18.582;2022-09-17T05:23:20;98520.91;;;11.32;100.00
48364;BME280;34170;54.364;18.582;2022-09-17T05:25:47;98525.63;;;11.30;100.00
48364;BME280;34170;54.364;18.582;2022-09-17T05:28:15;98531.63;;;11.25;100.00
48364;BME280;34170;54.364;18.582;2022-09-17T05:30:42;98522.81;;;11.38;100.00
48364;BME280;34170;54.364;18.582;2022-09-17T05:33:09;98516.03;;;11.42;100.00
48364;BME280;34170;54.364;18.582;2022-09-17T05:35:37;98539.53;;;11.33;100.00
48364;BME280;34170;54.364;18.582;2022-09-17T05:38:04;98531.00;;;11.51;100.00
48364;BME280;34170;54.364;18.582;2022-09-17T05:40:33;98534.72;;;11.72;100.00
48364;BME280;34170;54.364;18.582;2022-09-17T05:43:04;98532.72;;;11.87;100.00
48364;BME280;34170;54.364;18.582;2022-09-17T05:45:33;98541.44;;;12.11;100.00
48364;BME280;34170;54.364;18.582;2022-09-17T05:48:01;98538.19;;;13.39;100.00
48364;BME280;34170;54.364;18.582;2022-09-17T05:50:30;98547.94;;;15.23;100.00
48364;BME280;34170;54.364;18.582;2022-09-17T05:53:03;98546.44;;;17.32;86.54
48364;BME280;34170;54.364;18.582;2022-09-17T05:55:32;98566.19;;;18.76;74.38
48364;BME280;34170;54.364;18.582;2022-09-17T05:58:11;98565.38;;;21.13;62.97
48364;BME280;34170;54.364;18.582;2022-09-17T06:00:38;98576.25;;;22.59;53.16
48364;BME280;34170;54.364;18.582;2022-09-17T06:03:10;98561.44;;;20.82;55.43
48364;BME280;34170;54.364;18.582;2022-09-17T06:05:39;98556.13;;;19.17;61.28
48364;BME280;34170;54.364;18.582;2022-09-17T06:08:07;98549.63;;;17.71;68.31
48364;BME280;34170;54.364;18.582;2022-09-17T06:10:36;98539.63;;;16.44;76.09
48364;BME280;34170;54.364;18.582;2022-09-17T06:13:03;98548.09;;;15.60;82.06
48364;BME280;34170;54.364;18.582;2022-09-17T06:15:31;98551.75;;;14.71;87.79
48364;BME280;34170;54.364;18.582;2022-09-17T06:17:58;98563.97;;;13.81;96.83
48364;BME280;34170;54.364;18.582;2022-09-17T06:20:25;98562.53;;;12.42;100.00
48364;BME280;34170;54.364;18.582;2022-09-17T06:22:57;98554.59;;;12.34;100.00
48364;BME280;34170;54.364;18.582;2022-09-17T06:25:25;98554.16;;;11.95;100.00
48364;BME280;34170;54.364;18.582;2022-09-17T06:27:52;98564.41;;;12.07;100.00
48364;BME280;34170;54.364;18.582;2022-09-17T06:30:20;98563.81;;;12.11;100.00
48364;BME280;34170;54.364;18.582;2022-09-17T06:32:47;98564.84;;;11.89;100.00
48364;BME280;34170;54.364;18.582;2022-09-17T06:35:14;98570.16;;;12.04;100.00
48364;BME280;34170;54.364;18.582;2022-09-17T06:37:42;98576.78;;;12.29;100.00
48364;BME280;34170;54.364;18.582;2022-09-17T06:40:09;98571.59;;;11.99;100.00
48364;BME280;34170;54.364;18.582;2022-09-17T06:42:37;98578.66;;;12.00;100.00
48364;BME280;34170;54.364;18.582;2022-09-17T06:45:04;98579.38;;;12.16;100.00
48364;BME280;34170;54.364;18.582;2022-09-17T06:47:37;98581.91;;;12.59;100.00
48364;BME280;34170;54.364;18.582;2022-09-17T06:50:05;98584.50;;;13.42;100.00
48364;BME280;34170;54.364;18.582;2022-09-17T06:52:32;98591.38;;;13.51;100.00
48364;BME280;34170;54.364;18.582;2022-09-17T06:55:00;98597.78;;;14.44;98.49
48364;BME280;34170;54.364;18.582;2022-09-17T06:57:27;98595.28;;;14.49;96.04
48364;BME280;34170;54.364;18.582;2022-09-17T06:59:54;98595.47;;;14.54;98.68
48364;BME280;34170;54.364;18.582;2022-09-17T07:02:21;98582.81;;;15.70;87.51
48364;BME280;34170;54.364;18.582;2022-09-17T07:04:49;98591.16;;;17.18;78.56
48364;BME280;34170;54.364;18.582;2022-09-17T07:07:16;98595.06;;;17.52;73.55
48364;BME280;34170;54.364;18.582;2022-09-17T07:09:43;98593.56;;;16.52;78.83
48364;BME280;34170;54.364;18.582;2022-09-17T07:12:11;98601.47;;;15.60;84.39
48364;BME280;34170;54.364;18.582;2022-09-17T07:14:38;98598.69;;;14.96;89.87
48364;BME280;34170;54.364;18.582;2022-09-17T07:17:05;98593.44;;;14.36;93.81
48364;BME280;34170;54.364;18.582;2022-09-17T07:19:33;98600.53;;;14.17;98.90
48364;BME280;34170;54.364;18.582;2022-09-17T07:22:00;98609.69;;;13.89;100.00
48364;BME280;34170;54.364;18.582;2022-09-17T07:24:27;98606.56;;;13.92;100.00
48364;BME280;34170;54.364;18.582;2022-09-17T07:26:59;98615.06;;;13.63;100.00
48364;BME280;34170;54.364;18.582;2022-09-17T07:29:27;98625.09;;;14.02;100.00
48364;BME280;34170;54.364;18.582;2022-09-17T07:31:54;98625.34;;;15.76;89.80
48364;BME280;34170;54.364;18.582;2022-09-17T07:34:22;98629.91;;;17.44;75.97
48364;BME280;34170;54.364;18.582;2022-09-17T07:36:49;98641.69;;;18.22;72.67
48364;BME280;34170;54.364;18.582;2022-09-17T07:39:16;98646.50;;;20.00;62.76
48364;BME280;34170;54.364;18.582;2022-09-17T07:41:44;98641.50;;;22.03;53.72
48364;BME280;34170;54.364;18.582;2022-09-17T07:44:11;98637.00;;;23.72;49.00
48364;BME280;34170;54.364;18.582;2022-09-17T07:46:38;98647.94;;;25.06;44.15
48364;BME280;34170;54.364;18.582;2022-09-17T07:49:06;98657.34;;;27.46;38.98
48364;BME280;34170;54.364;18.582;2022-09-17T07:51:33;98653.09;;;25.83;40.91
48364;BME280;34170;54.364;18.582;2022-09-17T07:54:00;98664.19;;;27.91;37.84
48364;BME280;34170;54.364;18.582;2022-09-17T07:56:29;98658.88;;;26.85;38.79
48364;BME280;34170;54.364;18.582;2022-09-17T07:58:56;98662.00;;;27.26;38.60
48364;BME280;34170;54.364;18.582;2022-09-17T08:01:23;98656.44;;;27.31;38.68
48364;BME280;34170;54.364;18.582;2022-09-17T08:03:53;98660.88;;;27.70;35.91
48364;BME280;34170;54.364;18.582;2022-09-17T08:06:22;98661.81;;;26.93;38.61
48364;BME280;34170;54.364;18.582;2022-09-17T08:08:52;98663.50;;;26.89;38.58
48364;BME280;34170;54.364;18.582;2022-09-17T08:11:22;98666.19;;;27.86;36.92
48364;BME280;34170;54.364;18.582;2022-09-17T08:14:10;98660.25;;;25.19;40.75
48364;BME280;34170;54.364;18.582;2022-09-17T08:16:39;98658.19;;;24.64;42.02
48364;BME280;34170;54.364;18.582;2022-09-17T08:19:06;98665.88;;;24.16;44.53
48364;BME280;34170;54.364;18.582;2022-09-17T08:21:36;98662.69;;;22.45;48.50
48364;BME280;34170;54.364;18.582;2022-09-17T08:24:04;98664.50;;;22.02;50.38
48364;BME280;34170;54.364;18.582;2022-09-17T08:26:31;98671.47;;;25.38;44.07
48364;BME280;34170;54.364;18.582;2022-09-17T08:28:58;98676.88;;;24.83;43.29
48364;BME280;34170;54.364;18.582;2022-09-17T08:31:26;98662.28;;;23.85;45.05
48364;BME280;34170;54.364;18.582;2022-09-17T08:33:56;98680.91;;;23.77;46.48
48364;BME280;34170;54.364;18.582;2022-09-17T08:36:24;98678.44;;;22.65;49.66
48364;BME280;34170;54.364;18.582;2022-09-17T08:38:54;98685.13;;;22.42;51.19
48364;BME280;34170;54.364;18.582;2022-09-17T08:41:39;98684.22;;;20.88;54.99
48364;BME280;34170;54.364;18.582;2022-09-17T08:46:45;98693.59;;;20.75;56.73
48364;BME280;34170;54.364;18.582;2022-09-17T08:49:30;98691.84;;;20.52;59.68
48364;BME280;34170;54.364;18.582;2022-09-17T08:52:16;98692.88;;;22.98;50.43
48364;BME280;34170;54.364;18.582;2022-09-17T08:54:59;98687.69;;;23.01;49.23
48364;BME280;34170;54.364;18.582;2022-09-17T09:00:32;98684.59;;;23.35;47.04
48364;BME280;34170;54.364;18.582;2022-09-17T09:05:50;98688.31;;;25.31;43.43
48364;BME280;34170;54.364;18.582;2022-09-17T09:09:05;98693.00;;;25.10;43.00
48364;BME280;34170;54.364;18.582;2022-09-17T09:11:35;98695.28;;;24.21;44.73
48364;BME280;34170;54.364;18.582;2022-09-17T09:16:39;98700.81;;;26.13;41.10
48364;BME280;34170;54.364;18.582;2022-09-17T09:19:24;98707.81;;;27.89;37.53
48364;BME280;34170;54.364;18.582;2022-09-17T09:22:24;98689.91;;;25.37;40.76
48364;BME280;34170;54.364;18.582;2022-09-17T09:25:19;98690.31;;;23.92;45.07
48364;BME280;34170;54.364;18.582;2022-09-17T09:27:59;98693.81;;;23.09;47.18
48364;BME280;34170;54.364;18.582;2022-09-17T09:33:40;98691.66;;;26.57;39.75
48364;BME280;34170;54.364;18.582;2022-09-17T09:36:15;98682.69;;;27.24;38.82
48364;BME280;34170;54.364;18.582;2022-09-17T09:38:57;98682.22;;;25.89;40.18
48364;BME280;34170;54.364;18.582;2022-09-17T09:44:02;98676.94;;;23.37;44.63
48364;BME280;34170;54.364;18.582;2022-09-17T09:52:04;98675.69;;;23.76;44.45
48364;BME280;34170;54.364;18.582;2022-09-17T09:54:46;98676.84;;;23.12;46.58
48364;BME280;34170;54.364;18.582;2022-09-17T09:57:24;98675.91;;;21.00;51.00
48364;BME280;34170;54.364;18.582;2022-09-17T10:03:14;98673.41;;;19.11;60.49
48364;BME280;34170;54.364;18.582;2022-09-17T10:06:00;98667.94;;;18.16;64.41
48364;BME280;34170;54.364;18.582;2022-09-17T10:08:31;98660.97;;;17.18;69.18
48364;BME280;34170;54.364;18.582;2022-09-17T10:11:05;98672.44;;;17.50;69.78
48364;BME280;34170;54.364;18.582;2022-09-17T10:13:35;98682.78;;;18.91;63.44
48364;BME280;34170;54.364;18.582;2022-09-17T10:16:22;98680.75;;;19.10;62.28
48364;BME280;34170;54.364;18.582;2022-09-17T10:19:12;98684.69;;;21.02;55.72
48364;BME280;34170;54.364;18.582;2022-09-17T10:21:41;98685.78;;;22.54;50.47
48364;BME280;34170;54.364;18.582;2022-09-17T10:24:24;98678.03;;;22.46;49.62
48364;BME280;34170;54.364;18.582;2022-09-17T10:27:12;98681.22;;;23.08;49.21
48364;BME280;34170;54.364;18.582;2022-09-17T10:29:47;98680.91;;;23.77;46.01
48364;BME280;34170;54.364;18.582;2022-09-17T10:32:19;98670.53;;;23.90;46.31
48364;BME280;34170;54.364;18.582;2022-09-17T10:37:48;98692.22;;;23.96;44.68
48364;BME280;34170;54.364;18.582;2022-09-17T10:43:12;98695.06;;;21.66;50.84
48364;BME280;34170;54.364;18.582;2022-09-17T10:45:37;98691.09;;;20.74;53.47
48364;BME280;34170;54.364;18.582;2022-09-17T10:48:21;98692.06;;;20.85;54.68
48364;BME280;34170;54.364;18.582;2022-09-17T10:50:51;98700.66;;;21.77;52.31
48364;BME280;34170;54.364;18.582;2022-09-17T10:53:19;98695.88;;;21.23;52.59
48364;BME280;34170;54.364;18.582;2022-09-17T10:58:45;98691.50;;;19.17;59.63
48364;BME280;34170;54.364;18.582;2022-09-17T11:12:14;98720.09;;;14.53;79.63
48364;BME280;34170;54.364;18.582;2022-09-17T11:25:42;98724.44;;;13.94;98.34
48364;BME280;34170;54.364;18.582;2022-09-17T11:36:52;98720.94;;;14.80;100.00
48364;BME280;34170;54.364;18.582;2022-09-17T11:39:42;98722.50;;;15.21;100.00
48364;BME280;34170;54.364;18.582;2022-09-17T11:42:15;98714.97;;;15.81;99.36
48364;BME280;34170;54.364;18.582;2022-09-17T11:44:48;98716.19;;;16.43;97.63
48364;BME280;34170;54.364;18.582;2022-09-17T11:47:28;98715.94;;;17.13;96.95
48364;BME280;34170;54.364;18.582;2022-09-17T11:50:02;98719.25;;;17.52;93.07
48364;BME280;34170;54.364;18.582;2022-09-17T11:52:42;98703.09;;;17.57;93.64
48364;BME280;34170;54.364;18.582;2022-09-17T12:01:07;98705.09;;;17.13;95.55
48364;BME280;34170;54.364;18.582;2022-09-17T12:06:58;98697.38;;;16.48;94.59
48364;BME280;34170;54.364;18.582;2022-09-17T12:09:31;98703.66;;;16.16;96.85
48364;BME280;34170;54.364;18.582;2022-09-17T12:12:06;98718.28;;;16.15;96.72
48364;BME280;34170;54.364;18.582;2022-09-17T12:15:23;98710.56;;;16.44;91.74
48364;BME280;34170;54.364;18.582;2022-09-17T12:17:55;98718.72;;;15.80;91.82
48364;BME280;34170;54.364;18.582;2022-09-17T12:20:48;98711.09;;;16.03;89.36
48364;BME280;34170;54.364;18.582;2022-09-17T12:23:29;98720.88;;;15.65;87.87
48364;BME280;34170;54.364;18.582;2022-09-17T12:31:30;98702.69;;;16.36;83.72
48364;BME280;34170;54.364;18.582;2022-09-17T12:34:33;98715.91;;;16.26;82.37
48364;BME280;34170;54.364;18.582;2022-09-17T12:37:26;98699.06;;;15.92;83.39
48364;BME280;34170;54.364;18.582;2022-09-17T12:40:25;98711.06;;;15.64;84.75
48364;BME280;34170;54.364;18.582;2022-09-17T12:59:33;98695.22;;;15.61;84.69
48364;BME280;34170;54.364;18.582;2022-09-17T13:08:36;98710.38;;;15.30;88.47
48364;BME280;34170;54.364;18.582;2022-09-17T13:11:22;98709.34;;;15.31;89.19
48364;BME280;34170;54.364;18.582;2022-09-17T13:16:43;98728.53;;;15.16;89.23
48364;BME280;34170;54.364;18.582;2022-09-17T13:19:35;98725.69;;;15.04;87.41
48364;BME280;34170;54.364;18.582;2022-09-17T13:22:17;98713.59;;;15.00;87.94
48364;BME280;34170;54.364;18.582;2022-09-17T13:24:46;98713.22;;;14.77;90.21
48364;BME280;34170;54.364;18.582;2022-09-17T13:27:21;98729.88;;;14.94;88.13
48364;BME280;34170;54.364;18.582;2022-09-17T13:37:33;98726.75;;;15.49;88.63
48364;BME280;34170;54.364;18.582;2022-09-17T13:40:02;98725.44;;;15.64;88.20
48364;BME280;34170;54.364;18.582;2022-09-17T13:42:45;98714.28;;;15.48;89.51
48364;BME280;34170;54.364;18.582;2022-09-17T13:45:16;98732.25;;;15.29;86.33
48364;BME280;34170;54.364;18.582;2022-09-17T13:47:55;98721.81;;;15.32;85.78
48364;BME280;34170;54.364;18.582;2022-09-17T13:50:29;98719.03;;;14.87;87.80
48364;BME280;34170;54.364;18.582;2022-09-17T13:53:05;98727.09;;;15.14;87.28
48364;BME280;34170;54.364;18.582;2022-09-17T13:55:51;98729.59;;;15.15;88.55
48364;BME280;34170;54.364;18.582;2022-09-17T14:00:56;98720.69;;;15.01;89.12
48364;BME280;34170;54.364;18.582;2022-09-17T14:16:46;98737.53;;;15.10;87.48
48364;BME280;34170;54.364;18.582;2022-09-17T14:19:47;98737.69;;;15.22;88.29
48364;BME280;34170;54.364;18.582;2022-09-17T14:22:27;98732.94;;;15.11;88.72
48364;BME280;34170;54.364;18.582;2022-09-17T14:24:55;98731.66;;;15.20;89.01
48364;BME280;34170;54.364;18.582;2022-09-17T14:30:16;98741.50;;;15.01;86.96
48364;BME280;34170;54.364;18.582;2022-09-17T14:32:50;98758.56;;;15.01;88.90
48364;BME280;34170;54.364;18.582;2022-09-17T14:38:18;98759.63;;;14.87;94.56
48364;BME280;34170;54.364;18.582;2022-09-17T14:40:52;98767.56;;;14.82;97.67
48364;BME280;34170;54.364;18.582;2022-09-17T14:46:31;98751.53;;;14.47;100.00
48364;BME280;34170;54.364;18.582;2022-09-17T14:51:50;98750.69;;;14.46;100.00
48364;BME280;34170;54.364;18.582;2022-09-17T14:54:25;98769.81;;;14.52;100.00
48364;BME280;34170;54.364;18.582;2022-09-17T14:59:52;98747.69;;;13.81;100.00
48364;BME280;34170;54.364;18.582;2022-09-17T15:02:42;98747.91;;;13.86;100.00
48364;BME280;34170;54.364;18.582;2022-09-17T15:05:25;98759.94;;;13.77;100.00
48364;BME280;34170;54.364;18.582;2022-09-17T15:10:46;98750.63;;;13.86;100.00
48364;BME280;34170;54.364;18.582;2022-09-17T15:13:22;98755.41;;;13.84;100.00
48364;BME280;34170;54.364;18.582;2022-09-17T15:18:49;98753.31;;;13.93;100.00
48364;BME280;34170;54.364;18.582;2022-09-17T15:26:41;98747.63;;;13.68;100.00
48364;BME280;34170;54.364;18.582;2022-09-17T15:29:13;98753.63;;;13.57;100.00
48364;BME280;34170;54.364;18.582;2022-09-17T15:31:41;98751.59;;;13.24;100.00
48364;BME280;34170;54.364;18.582;2022-09-17T15:34:11;98755.75;;;13.26;100.00
48364;BME280;34170;54.364;18.582;2022-09-17T15:36:38;98762.88;;;13.34;100.00
48364;BME280;34170;54.364;18.582;2022-09-17T15:39:28;98754.09;;;13.25;100.00
48364;BME280;34170;54.364;18.582;2022-09-17T15:41:56;98758.72;;;13.31;100.00
48364;BME280;34170;54.364;18.582;2022-09-17T15:44:24;98760.72;;;13.23;100.00
48364;BME280;34170;54.364;18.582;2022-09-17T15:50:32;98762.63;;;12.94;100.00
48364;BME280;34170;54.364;18.582;2022-09-17T15:55:42;98762.13;;;12.84;100.00
48364;BME280;34170;54.364;18.582;2022-09-17T15:58:33;98763.72;;;12.71;100.00
48364;BME280;34170;54.364;18.582;2022-09-17T16:08:56;98777.78;;;12.17;100.00
48364;BME280;34170;54.364;18.582;2022-09-17T16:11:29;98780.19;;;12.12;100.00
48364;BME280;34170;54.364;18.582;2022-09-17T16:13:58;98774.06;;;12.18;100.00
48364;BME280;34170;54.364;18.582;2022-09-17T16:16:31;98777.88;;;12.09;100.00
48364;BME280;34170;54.364;18.582;2022-09-17T16:19:00;98782.31;;;11.95;100.00
48364;BME280;34170;54.364;18.582;2022-09-17T16:21:27;98777.50;;;11.90;100.00
48364;BME280;34170;54.364;18.582;2022-09-17T16:23:55;98786.22;;;11.92;100.00
48364;BME280;34170;54.364;18.582;2022-09-17T16:26:29;98769.69;;;12.17;100.00
48364;BME280;34170;54.364;18.582;2022-09-17T16:29:02;98767.63;;;12.19;100.00
48364;BME280;34170;54.364;18.582;2022-09-17T16:31:30;98766.53;;;12.13;100.00
48364;BME280;34170;54.364;18.582;2022-09-17T16:33:59;98779.94;;;12.07;100.00
48364;BME280;34170;54.364;18.582;2022-09-17T16:36:27;98774.38;;;12.08;100.00
48364;BME280;34170;54.364;18.582;2022-09-17T16:38:58;98782.63;;;12.07;100.00
48364;BME280;34170;54.364;18.582;2022-09-17T16:41:25;98788.66;;;12.09;100.00
48364;BME280;34170;54.364;18.582;2022-09-17T16:43:53;98790.84;;;11.98;100.00